createdAt,value
2023-01-22T00:00:16.906Z,94.64
2023-01-22T00:01:16.684Z,94.53
2023-01-22T00:02:16.702Z,94.64
2023-01-22T00:03:16.616Z,94.26
2023-01-22T00:04:16.372Z,94.36
2023-01-22T00:05:16.591Z,94.57
2023-01-22T00:06:16.638Z,95.20
2023-01-22T00:07:16.611Z,95.31
2023-01-22T00:08:16.562Z,94.78
2023-01-22T00:09:16.510Z,94.78
2023-01-22T00:10:16.986Z,94.89
2023-01-22T00:11:16.553Z,94.89
2023-01-22T00:12:16.632Z,94.89
2023-01-22T00:13:16.556Z,94.57
2023-01-22T00:14:16.517Z,94.46
2023-01-22T00:15:16.478Z,94.78
2023-01-22T00:16:16.576Z,94.68
2023-01-22T00:17:16.479Z,94.57
2023-01-22T00:18:16.530Z,94.68
2023-01-22T00:19:16.431Z,94.36
2023-01-22T00:20:16.762Z,94.36
2023-01-22T00:21:16.431Z,94.46
2023-01-22T00:22:16.425Z,94.46
2023-01-22T00:23:16.490Z,94.57
2023-01-22T00:24:16.478Z,94.46
2023-01-22T00:25:16.394Z,94.46
2023-01-22T00:26:16.399Z,94.26
2023-01-22T00:27:16.374Z,94.36
2023-01-22T00:28:16.358Z,94.26
2023-01-22T00:29:16.419Z,94.46
2023-01-22T00:30:16.636Z,94.26
2023-01-22T00:31:16.455Z,94.15
2023-01-22T00:32:16.407Z,93.95
2023-01-22T00:33:16.298Z,94.15
2023-01-22T00:34:16.370Z,94.15
2023-01-22T00:35:16.438Z,94.05
2023-01-22T00:36:16.081Z,93.74
2023-01-22T00:37:16.333Z,93.84
2023-01-22T00:38:16.250Z,94.05
2023-01-22T00:39:16.308Z,94.05
2023-01-22T00:40:16.765Z,94.15
2023-01-22T00:41:16.061Z,94.15
2023-01-22T00:42:16.224Z,93.84
2023-01-22T00:43:16.217Z,93.74
2023-01-22T00:44:16.221Z,93.74
2023-01-22T00:45:16.230Z,94.05
2023-01-22T00:46:16.132Z,93.95
2023-01-22T00:47:16.181Z,93.42
2023-01-22T00:48:16.192Z,93.32
2023-01-22T00:49:16.204Z,93.59
2023-01-22T00:50:16.425Z,93.48
2023-01-22T00:51:16.230Z,93.32
2023-01-22T00:52:16.200Z,93.52
2023-01-22T00:53:16.128Z,93.48
2023-01-22T00:54:16.148Z,93.63
2023-01-22T00:55:16.101Z,93.27
2023-01-22T00:56:16.127Z,92.44
2023-01-22T00:57:16.190Z,92.27
2023-01-22T00:58:16.122Z,92.54
2023-01-22T00:59:16.118Z,92.96
2023-01-22T01:00:16.304Z,93.07
2023-01-22T01:01:16.105Z,92.54
2023-01-22T01:02:16.185Z,91.91
2023-01-22T01:03:16.050Z,91.81
2023-01-22T01:04:16.077Z,91.81
2023-01-22T01:05:15.989Z,92.13
2023-01-22T01:06:16.030Z,92.02
2023-01-22T01:07:16.050Z,91.81
2023-01-22T01:08:15.997Z,91.71
2023-01-22T01:09:16.032Z,91.28
2023-01-22T01:10:16.486Z,91.50
2023-01-22T01:11:15.886Z,91.81
2023-01-22T01:12:15.902Z,91.91
2023-01-22T01:13:15.941Z,91.91
2023-01-22T01:14:15.946Z,91.71
2023-01-22T01:15:15.963Z,91.71
2023-01-22T01:16:16.069Z,91.60
2023-01-22T01:17:15.927Z,91.81
2023-01-22T01:18:15.954Z,91.71
2023-01-22T01:19:15.921Z,91.60
2023-01-22T01:20:16.234Z,91.28
2023-01-22T01:21:15.867Z,91.50
2023-01-22T01:22:15.678Z,91.28
2023-01-22T01:23:15.860Z,91.18
2023-01-22T01:24:15.931Z,91.50
2023-01-22T01:25:15.851Z,91.60
2023-01-22T01:26:15.855Z,91.81
2023-01-22T01:27:15.801Z,91.28
2023-01-22T01:28:15.787Z,90.97
2023-01-22T01:29:15.840Z,90.87
2023-01-22T01:30:16.206Z,90.87
2023-01-22T01:31:15.953Z,90.87
2023-01-22T01:32:15.757Z,90.87
2023-01-22T01:33:15.744Z,90.97
2023-01-22T01:34:15.749Z,90.66
2023-01-22T01:35:15.583Z,90.77
2023-01-22T01:36:15.756Z,90.45
2023-01-22T01:37:15.745Z,90.56
2023-01-22T01:38:15.728Z,90.45
2023-01-22T01:39:15.711Z,90.14
2023-01-22T01:40:15.860Z,90.45
2023-01-22T01:41:15.749Z,90.56
2023-01-22T01:42:15.643Z,90.56
2023-01-22T01:43:15.437Z,90.56
2023-01-22T01:44:15.509Z,90.56
2023-01-22T01:45:15.619Z,90.45
2023-01-22T01:46:15.735Z,90.66
2023-01-22T01:47:15.710Z,90.56
2023-01-22T01:48:15.608Z,90.56
2023-01-22T01:49:15.608Z,91.02
2023-01-22T01:50:15.807Z,91.54
2023-01-22T01:51:15.617Z,91.85
2023-01-22T01:52:15.637Z,92.16
2023-01-22T01:53:15.543Z,92.54
2023-01-22T01:54:15.532Z,92.38
2023-01-22T01:55:15.513Z,92.33
2023-01-22T01:56:15.507Z,91.91
2023-01-22T01:57:15.591Z,92.02
2023-01-22T01:58:15.499Z,92.13
2023-01-22T01:59:15.567Z,91.60
2023-01-22T02:00:15.688Z,91.81
2023-01-22T02:01:15.266Z,91.91
2023-01-22T02:02:15.586Z,91.60
2023-01-22T02:03:15.555Z,91.50
2023-01-22T02:04:15.437Z,91.60
2023-01-22T02:05:15.468Z,91.81
2023-01-22T02:06:15.401Z,92.02
2023-01-22T02:07:15.413Z,92.13
2023-01-22T02:08:15.412Z,92.23
2023-01-22T02:09:15.491Z,92.23
2023-01-22T02:10:15.639Z,92.13
2023-01-22T02:11:15.401Z,91.81
2023-01-22T02:12:15.404Z,91.91
2023-01-22T02:13:15.384Z,92.13
2023-01-22T02:14:15.232Z,92.13
2023-01-22T02:15:15.387Z,91.91
2023-01-22T02:16:15.449Z,91.60
2023-01-22T02:17:15.263Z,91.71
2023-01-22T02:18:15.239Z,91.50
2023-01-22T02:19:15.398Z,91.50
2023-01-22T02:20:15.383Z,91.60
2023-01-22T02:21:15.252Z,91.71
2023-01-22T02:22:15.248Z,91.81
2023-01-22T02:23:15.251Z,92.02
2023-01-22T02:24:15.259Z,92.44
2023-01-22T02:25:15.265Z,92.75
2023-01-22T02:26:15.247Z,92.54
2023-01-22T02:27:15.241Z,92.13
2023-01-22T02:28:15.146Z,92.13
2023-01-22T02:29:15.163Z,91.71
2023-01-22T02:30:15.382Z,91.60
2023-01-22T02:31:15.265Z,91.71
2023-01-22T02:32:15.266Z,91.81
2023-01-22T02:33:15.080Z,92.02
2023-01-22T02:34:15.115Z,91.81
2023-01-22T02:35:15.147Z,91.50
2023-01-22T02:36:15.087Z,91.71
2023-01-22T02:37:15.181Z,91.91
2023-01-22T02:38:15.110Z,92.02
2023-01-22T02:39:15.039Z,92.13
2023-01-22T02:40:15.091Z,92.23
2023-01-22T02:41:15.152Z,92.02
2023-01-22T02:42:15.165Z,91.87
2023-01-22T02:43:15.032Z,91.91
2023-01-22T02:44:15.104Z,91.77
2023-01-22T02:45:15.032Z,91.87
2023-01-22T02:46:15.043Z,91.77
2023-01-22T02:47:15.138Z,91.87
2023-01-22T02:48:14.972Z,91.87
2023-01-22T02:49:14.970Z,91.98
2023-01-22T02:50:14.955Z,91.87
2023-01-22T02:51:14.970Z,91.98
2023-01-22T02:52:15.021Z,91.98
2023-01-22T02:53:14.941Z,91.98
2023-01-22T02:54:14.926Z,91.98
2023-01-22T02:55:14.915Z,92.08
2023-01-22T02:56:14.888Z,92.19
2023-01-22T02:57:14.949Z,92.19
2023-01-22T02:58:14.941Z,91.98
2023-01-22T02:59:14.940Z,91.98
2023-01-22T03:00:14.768Z,92.08
2023-01-22T03:01:14.723Z,92.08
2023-01-22T03:02:15.002Z,92.08
2023-01-22T03:03:14.899Z,92.08
2023-01-22T03:04:14.853Z,92.08
2023-01-22T03:05:14.824Z,91.87
2023-01-22T03:06:14.862Z,92.08
2023-01-22T03:07:14.833Z,92.08
2023-01-22T03:08:14.791Z,92.40
2023-01-22T03:09:14.906Z,92.50
2023-01-22T03:10:14.684Z,92.40
2023-01-22T03:11:14.705Z,92.60
2023-01-22T03:12:14.732Z,92.71
2023-01-22T03:13:14.740Z,92.60
2023-01-22T03:14:14.747Z,92.60
2023-01-22T03:15:14.762Z,92.50
2023-01-22T03:16:14.774Z,92.40
2023-01-22T03:17:14.635Z,92.40
2023-01-22T03:18:14.741Z,92.29
2023-01-22T03:19:14.722Z,92.19
2023-01-22T03:20:14.713Z,92.29
2023-01-22T03:21:14.682Z,91.98
2023-01-22T03:22:14.670Z,91.77
2023-01-22T03:23:14.653Z,91.77
2023-01-22T03:24:14.642Z,91.66
2023-01-22T03:25:14.634Z,91.87
2023-01-22T03:26:14.703Z,91.77
2023-01-22T03:27:14.625Z,91.77
2023-01-22T03:28:14.627Z,91.66
2023-01-22T03:29:14.630Z,91.56
2023-01-22T03:30:14.625Z,91.56
2023-01-22T03:31:14.727Z,91.46
2023-01-22T03:32:14.534Z,91.66
2023-01-22T03:33:14.638Z,91.87
2023-01-22T03:34:14.516Z,91.77
2023-01-22T03:35:14.649Z,91.87
2023-01-22T03:36:14.528Z,91.66
2023-01-22T03:37:14.518Z,91.77
2023-01-22T03:38:14.442Z,91.77
2023-01-22T03:39:14.425Z,91.77
2023-01-22T03:40:14.609Z,91.77
2023-01-22T03:41:14.594Z,91.66
2023-01-22T03:42:14.446Z,91.87
2023-01-22T03:43:14.428Z,91.77
2023-01-22T03:44:14.390Z,91.87
2023-01-22T03:45:14.379Z,92.08
2023-01-22T03:46:14.324Z,92.08
2023-01-22T03:47:14.495Z,92.29
2023-01-22T03:48:14.361Z,92.29
2023-01-22T03:49:14.355Z,92.29
2023-01-22T03:50:14.326Z,92.19
2023-01-22T03:51:14.390Z,92.19
2023-01-22T03:52:14.364Z,92.40
2023-01-22T03:53:14.304Z,92.19
2023-01-22T03:54:14.384Z,92.08
2023-01-22T03:55:14.346Z,91.98
2023-01-22T03:56:14.323Z,92.19
2023-01-22T03:57:14.297Z,92.08
2023-01-22T03:58:14.280Z,92.08
2023-01-22T03:59:14.281Z,92.08
2023-01-22T04:00:14.255Z,92.29
2023-01-22T04:01:14.313Z,92.50
2023-01-22T04:02:14.312Z,92.19
2023-01-22T04:03:14.289Z,91.98
2023-01-22T04:04:14.313Z,92.08
2023-01-22T04:05:14.197Z,92.19
2023-01-22T04:06:14.216Z,92.08
2023-01-22T04:07:14.207Z,92.08
2023-01-22T04:08:14.128Z,91.87
2023-01-22T04:09:14.117Z,91.98
2023-01-22T04:10:14.190Z,92.19
2023-01-22T04:11:13.959Z,92.50
2023-01-22T04:12:14.096Z,92.60
2023-01-22T04:13:14.098Z,92.71
2023-01-22T04:14:14.174Z,92.29
2023-01-22T04:15:14.111Z,92.40
2023-01-22T04:16:14.079Z,92.71
2023-01-22T04:17:14.080Z,92.50
2023-01-22T04:18:14.091Z,92.40
2023-01-22T04:19:14.034Z,92.19
2023-01-22T04:20:14.161Z,92.29
2023-01-22T04:21:14.099Z,92.08
2023-01-22T04:22:14.030Z,91.98
2023-01-22T04:23:14.047Z,92.29
2023-01-22T04:24:14.061Z,92.50
2023-01-22T04:25:14.100Z,92.82
2023-01-22T04:26:14.032Z,92.71
2023-01-22T04:27:14.051Z,92.50
2023-01-22T04:28:14.066Z,92.50
2023-01-22T04:29:13.990Z,92.29
2023-01-22T04:30:13.982Z,92.19
2023-01-22T04:31:14.059Z,92.29
2023-01-22T04:32:13.996Z,92.19
2023-01-22T04:33:14.004Z,92.40
2023-01-22T04:34:13.926Z,92.40
2023-01-22T04:35:13.724Z,92.40
2023-01-22T04:36:13.957Z,92.50
2023-01-22T04:37:13.880Z,92.40
2023-01-22T04:38:13.901Z,92.40
2023-01-22T04:39:13.971Z,92.40
2023-01-22T04:40:13.886Z,92.50
2023-01-22T04:41:13.900Z,92.50
2023-01-22T04:42:13.908Z,92.60
2023-01-22T04:43:13.901Z,92.82
2023-01-22T04:44:13.886Z,92.71
2023-01-22T04:45:13.812Z,92.60
2023-01-22T04:46:13.966Z,92.71
2023-01-22T04:47:13.848Z,92.60
2023-01-22T04:48:13.847Z,92.60
2023-01-22T04:49:13.857Z,92.56
2023-01-22T04:50:13.705Z,92.25
2023-01-22T04:51:13.722Z,92.25
2023-01-22T04:52:13.727Z,92.35
2023-01-22T04:53:13.729Z,92.25
2023-01-22T04:54:13.748Z,92.25
2023-01-22T04:55:13.751Z,92.25
2023-01-22T04:56:13.747Z,92.04
2023-01-22T04:57:13.743Z,92.04
2023-01-22T04:58:13.729Z,92.25
2023-01-22T04:59:13.692Z,92.25
2023-01-22T05:00:13.462Z,92.35
2023-01-22T05:01:13.740Z,92.46
2023-01-22T05:02:13.660Z,92.46
2023-01-22T05:03:13.679Z,92.46
2023-01-22T05:04:13.724Z,92.25
2023-01-22T05:05:13.607Z,92.35
2023-01-22T05:06:13.591Z,92.35
2023-01-22T05:07:13.803Z,92.25
2023-01-22T05:08:13.718Z,92.35
2023-01-22T05:09:13.642Z,92.25
2023-01-22T05:10:13.568Z,92.25
2023-01-22T05:11:13.644Z,92.25
2023-01-22T05:12:13.639Z,92.04
2023-01-22T05:13:13.541Z,92.04
2023-01-22T05:14:13.612Z,92.25
2023-01-22T05:15:23.538Z,92.35
2023-01-22T05:16:13.570Z,92.46
2023-01-22T05:17:13.503Z,92.46
2023-01-22T05:18:13.494Z,92.46
2023-01-22T05:19:13.481Z,92.35
2023-01-22T05:20:13.544Z,92.35
2023-01-22T05:21:13.477Z,92.46
2023-01-22T05:22:13.480Z,92.46
2023-01-22T05:23:13.485Z,92.25
2023-01-22T05:24:13.418Z,92.35
2023-01-22T05:25:13.426Z,92.25
2023-01-22T05:26:13.520Z,92.35
2023-01-22T05:27:13.451Z,92.35
2023-01-22T05:28:13.465Z,92.46
2023-01-22T05:29:13.326Z,92.56
2023-01-22T05:30:13.332Z,92.46
2023-01-22T05:31:13.463Z,92.66
2023-01-22T05:32:13.341Z,92.56
2023-01-22T05:33:13.371Z,92.98
2023-01-22T05:34:13.381Z,92.77
2023-01-22T05:35:13.279Z,92.66
2023-01-22T05:36:13.394Z,92.88
2023-01-22T05:37:13.292Z,93.08
2023-01-22T05:38:13.307Z,92.98
2023-01-22T05:39:13.334Z,92.88
2023-01-22T05:40:13.105Z,92.88
2023-01-22T05:41:13.256Z,92.77
2023-01-22T05:42:13.265Z,92.77
2023-01-22T05:43:13.185Z,92.66
2023-01-22T05:44:13.193Z,92.66
2023-01-22T05:45:13.200Z,92.60
2023-01-22T05:46:13.237Z,93.02
2023-01-22T05:47:13.273Z,93.13
2023-01-22T05:48:13.191Z,92.82
2023-01-22T05:49:13.101Z,92.92
2023-01-22T05:50:13.163Z,92.82
2023-01-22T05:51:13.170Z,92.92
2023-01-22T05:52:13.156Z,92.92
2023-01-22T05:53:13.241Z,93.02
2023-01-22T05:54:12.930Z,92.40
2023-01-22T05:55:13.195Z,92.40
2023-01-22T05:56:13.115Z,92.92
2023-01-22T05:57:13.114Z,93.02
2023-01-22T05:58:13.100Z,93.33
2023-01-22T05:59:13.159Z,93.33
2023-01-22T06:00:13.061Z,93.33
2023-01-22T06:01:13.135Z,93.23
2023-01-22T06:02:13.073Z,93.33
2023-01-22T06:03:12.995Z,93.33
2023-01-22T06:04:13.020Z,93.33
2023-01-22T06:05:13.010Z,93.02
2023-01-22T06:06:13.059Z,93.02
2023-01-22T06:07:13.045Z,93.02
2023-01-22T06:08:13.057Z,92.82
2023-01-22T06:09:12.977Z,92.82
2023-01-22T06:10:12.997Z,92.60
2023-01-22T06:11:12.791Z,92.82
2023-01-22T06:12:13.016Z,92.92
2023-01-22T06:13:12.998Z,92.71
2023-01-22T06:14:12.901Z,92.71
2023-01-22T06:15:12.892Z,92.50
2023-01-22T06:16:12.926Z,92.71
2023-01-22T06:17:13.025Z,93.23
2023-01-22T06:18:12.870Z,93.13
2023-01-22T06:19:12.930Z,93.23
2023-01-22T06:20:12.935Z,93.33
2023-01-22T06:21:12.928Z,93.44
2023-01-22T06:22:12.892Z,93.44
2023-01-22T06:23:12.882Z,93.23
2023-01-22T06:24:12.871Z,93.02
2023-01-22T06:25:12.887Z,92.98
2023-01-22T06:26:12.707Z,92.92
2023-01-22T06:27:12.806Z,93.02
2023-01-22T06:28:12.931Z,93.08
2023-01-22T06:29:12.750Z,93.08
2023-01-22T06:30:12.755Z,93.08
2023-01-22T06:31:12.972Z,92.98
2023-01-22T06:32:12.724Z,92.98
2023-01-22T06:33:12.703Z,92.98
2023-01-22T06:34:12.627Z,92.88
2023-01-22T06:35:12.720Z,92.77
2023-01-22T06:36:12.740Z,92.66
2023-01-22T06:37:12.764Z,92.66
2023-01-22T06:38:12.700Z,92.66
2023-01-22T06:39:12.729Z,92.77
2023-01-22T06:40:12.690Z,92.46
2023-01-22T06:41:12.603Z,92.46
2023-01-22T06:42:12.685Z,92.56
2023-01-22T06:43:12.615Z,92.56
2023-01-22T06:44:12.714Z,92.56
2023-01-22T06:45:12.648Z,92.46
2023-01-22T06:46:12.601Z,92.46
2023-01-22T06:47:12.578Z,92.25
2023-01-22T06:48:12.604Z,92.25
2023-01-22T06:49:12.620Z,92.14
2023-01-22T06:50:12.560Z,92.14
2023-01-22T06:51:12.654Z,92.14
2023-01-22T06:52:12.573Z,92.14
2023-01-22T06:53:12.730Z,91.94
2023-01-22T06:54:12.505Z,92.14
2023-01-22T06:55:12.515Z,92.56
2023-01-22T06:56:12.463Z,92.77
2023-01-22T06:57:12.503Z,92.56
2023-01-22T06:58:12.545Z,92.56
2023-01-22T06:59:12.567Z,92.56
2023-01-22T07:00:12.455Z,92.56
2023-01-22T07:01:12.475Z,92.46
2023-01-22T07:02:12.382Z,92.71
2023-01-22T07:03:12.271Z,93.02
2023-01-22T07:04:12.438Z,93.13
2023-01-22T07:05:12.391Z,93.13
2023-01-22T07:06:12.440Z,93.33
2023-01-22T07:07:12.417Z,93.54
2023-01-22T07:08:12.405Z,93.76
2023-01-22T07:09:12.478Z,93.65
2023-01-22T07:10:12.480Z,93.96
2023-01-22T07:11:12.139Z,94.38
2023-01-22T07:12:12.341Z,94.27
2023-01-22T07:13:12.335Z,94.38
2023-01-22T07:14:12.342Z,94.49
2023-01-22T07:15:12.436Z,94.27
2023-01-22T07:16:12.305Z,94.17
2023-01-22T07:17:12.280Z,93.96
2023-01-22T07:18:12.261Z,94.07
2023-01-22T07:19:12.345Z,94.17
2023-01-22T07:20:12.382Z,94.07
2023-01-22T07:21:12.346Z,94.07
2023-01-22T07:22:12.281Z,93.96
2023-01-22T07:23:12.269Z,94.07
2023-01-22T07:24:12.198Z,93.76
2023-01-22T07:25:12.293Z,93.92
2023-01-22T07:26:12.219Z,94.02
2023-01-22T07:27:12.221Z,94.13
2023-01-22T07:28:12.222Z,94.13
2023-01-22T07:29:12.194Z,94.02
2023-01-22T07:30:12.164Z,94.13
2023-01-22T07:31:12.312Z,94.07
2023-01-22T07:32:12.188Z,94.59
2023-01-22T07:33:12.248Z,94.59
2023-01-22T07:34:12.172Z,94.49
2023-01-22T07:35:12.097Z,94.70
2023-01-22T07:36:12.104Z,94.70
2023-01-22T07:37:12.110Z,95.21
2023-01-22T07:38:12.203Z,95.11
2023-01-22T07:39:12.183Z,95.32
2023-01-22T07:40:12.115Z,95.53
2023-01-22T07:41:25.150Z,95.43
2023-01-22T07:42:11.956Z,95.53
2023-01-22T07:43:12.145Z,95.43
2023-01-22T07:44:12.008Z,95.28
2023-01-22T07:45:11.874Z,95.32
2023-01-22T07:46:11.866Z,95.28
2023-01-22T07:47:12.047Z,95.17
2023-01-22T07:48:11.937Z,95.17
2023-01-22T07:49:12.087Z,95.17
2023-01-22T07:50:11.982Z,95.17
2023-01-22T07:51:11.877Z,95.07
2023-01-22T07:52:11.942Z,94.86
2023-01-22T07:53:11.945Z,94.65
2023-01-22T07:54:11.791Z,94.34
2023-01-22T07:55:11.893Z,94.76
2023-01-22T07:56:11.897Z,94.76
2023-01-22T07:57:11.832Z,94.65
2023-01-22T07:58:11.835Z,94.76
2023-01-22T07:59:11.900Z,94.76
2023-01-22T08:00:11.865Z,94.34
2023-01-22T08:01:11.915Z,94.40
2023-01-22T08:02:11.870Z,94.50
2023-01-22T08:03:11.667Z,94.40
2023-01-22T08:04:11.631Z,94.19
2023-01-22T08:05:11.659Z,94.09
2023-01-22T08:06:11.622Z,94.09
2023-01-22T08:07:11.602Z,93.57
2023-01-22T08:08:11.819Z,93.46
2023-01-22T08:09:11.762Z,93.94
2023-01-22T08:10:11.631Z,93.63
2023-01-22T08:11:11.568Z,93.21
2023-01-22T08:12:11.528Z,93.00
2023-01-22T08:13:11.576Z,92.58
2023-01-22T08:14:11.584Z,92.37
2023-01-22T08:15:11.512Z,92.54
2023-01-22T08:16:11.675Z,92.44
2023-01-22T08:17:11.501Z,92.02
2023-01-22T08:18:11.731Z,92.02
2023-01-22T08:19:11.766Z,92.02
2023-01-22T08:20:11.705Z,91.81
2023-01-22T08:21:11.437Z,91.60
2023-01-22T08:22:11.474Z,91.60
2023-01-22T08:23:11.708Z,91.56
2023-01-22T08:24:11.651Z,91.46
2023-01-22T08:25:11.530Z,91.25
2023-01-22T08:26:11.568Z,91.25
2023-01-22T08:27:11.625Z,91.04
2023-01-22T08:28:11.526Z,91.04
2023-01-22T08:29:11.549Z,91.04
2023-01-22T08:30:11.366Z,90.72
2023-01-22T08:31:26.339Z,90.93
2023-01-22T08:32:11.650Z,90.93
2023-01-22T08:33:11.368Z,90.87
2023-01-22T08:34:11.425Z,90.83
2023-01-22T08:35:12.972Z,90.83
2023-01-22T08:36:11.420Z,91.04
2023-01-22T08:37:11.326Z,91.04
2023-01-22T08:38:11.433Z,91.04
2023-01-22T08:39:11.435Z,90.93
2023-01-22T08:40:11.240Z,90.93
2023-01-22T08:41:11.295Z,91.04
2023-01-22T08:42:11.387Z,91.25
2023-01-22T08:43:11.394Z,90.93
2023-01-22T08:44:11.209Z,90.93
2023-01-22T08:45:11.238Z,90.83
2023-01-22T08:46:11.479Z,90.93
2023-01-22T08:47:11.224Z,90.93
2023-01-22T08:48:11.142Z,90.93
2023-01-22T08:49:11.469Z,90.83
2023-01-22T08:50:11.342Z,90.72
2023-01-22T08:51:11.398Z,90.62
2023-01-22T08:52:11.352Z,90.52
2023-01-22T08:53:11.223Z,90.62
2023-01-22T08:54:11.438Z,90.52
2023-01-22T08:55:11.278Z,90.62
2023-01-22T08:56:11.315Z,90.79
2023-01-22T08:57:11.217Z,90.79
2023-01-22T08:58:11.383Z,90.68
2023-01-22T08:59:11.311Z,90.58
2023-01-22T09:00:11.065Z,90.58
2023-01-22T09:01:11.208Z,90.72
2023-01-22T09:02:11.286Z,90.58
2023-01-22T09:03:11.242Z,90.83
2023-01-22T09:04:11.240Z,90.93
2023-01-22T09:05:11.328Z,90.93
2023-01-22T09:06:11.106Z,90.83
2023-01-22T09:07:11.027Z,90.83
2023-01-22T09:08:10.981Z,90.58
2023-01-22T09:09:11.043Z,90.47
2023-01-22T09:10:11.029Z,90.26
2023-01-22T09:11:10.981Z,90.26
2023-01-22T09:12:11.091Z,90.16
2023-01-22T09:13:11.065Z,90.47
2023-01-22T09:14:11.103Z,90.26
2023-01-22T09:15:11.145Z,90.26
2023-01-22T09:16:11.247Z,90.47
2023-01-22T09:17:10.888Z,90.37
2023-01-22T09:18:11.115Z,90.06
2023-01-22T09:19:11.095Z,90.10
2023-01-22T09:20:11.028Z,90.00
2023-01-22T09:21:11.087Z,90.20
2023-01-22T09:22:11.094Z,90.16
2023-01-22T09:23:10.807Z,90.26
2023-01-22T09:24:11.038Z,90.06
2023-01-22T09:25:11.037Z,90.06
2023-01-22T09:26:10.969Z,89.95
2023-01-22T09:27:11.044Z,89.75
2023-01-22T09:28:10.787Z,89.60
2023-01-22T09:29:10.961Z,89.60
2023-01-22T09:30:10.986Z,89.29
2023-01-22T09:31:10.996Z,89.22
2023-01-22T09:32:10.859Z,89.50
2023-01-22T09:33:10.888Z,89.60
2023-01-22T09:34:10.980Z,89.39
2023-01-22T09:35:10.758Z,89.18
2023-01-22T09:36:10.887Z,89.08
2023-01-22T09:37:10.810Z,88.98
2023-01-22T09:38:10.971Z,88.98
2023-01-22T09:39:10.911Z,88.98
2023-01-22T09:40:10.759Z,89.08
2023-01-22T09:41:10.769Z,89.29
2023-01-22T09:42:10.998Z,89.29
2023-01-22T09:43:10.754Z,89.29
2023-01-22T09:44:10.637Z,89.18
2023-01-22T09:45:10.743Z,89.08
2023-01-22T09:46:10.817Z,88.98
2023-01-22T09:47:10.770Z,88.98
2023-01-22T09:48:10.796Z,89.08
2023-01-22T09:49:10.588Z,89.08
2023-01-22T09:50:10.837Z,89.08
2023-01-22T09:51:10.716Z,89.08
2023-01-22T09:52:10.695Z,89.18
2023-01-22T09:53:10.720Z,89.29
2023-01-22T09:54:10.810Z,89.18
2023-01-22T09:55:10.742Z,89.18
2023-01-22T09:56:10.687Z,89.29
2023-01-22T09:57:14.855Z,89.08
2023-01-22T09:58:10.626Z,89.18
2023-01-22T09:59:10.636Z,89.08
2023-01-22T10:00:10.651Z,89.29
2023-01-22T10:01:10.753Z,89.29
2023-01-22T10:02:10.682Z,89.29
2023-01-22T10:03:10.700Z,89.29
2023-01-22T10:04:10.738Z,89.29
2023-01-22T10:05:10.631Z,89.08
2023-01-22T10:06:10.679Z,89.08
2023-01-22T10:07:10.643Z,88.93
2023-01-22T10:08:10.427Z,88.73
2023-01-22T10:09:10.544Z,88.73
2023-01-22T10:10:10.568Z,88.62
2023-01-22T10:11:10.591Z,88.31
2023-01-22T10:12:10.622Z,88.10
2023-01-22T10:13:10.499Z,88.10
2023-01-22T10:14:10.509Z,87.89
2023-01-22T10:15:10.530Z,87.79
2023-01-22T10:16:10.535Z,87.79
2023-01-22T10:17:10.434Z,87.79
2023-01-22T10:18:10.383Z,88.06
2023-01-22T10:19:10.349Z,88.06
2023-01-22T10:20:10.319Z,88.06
2023-01-22T10:21:10.426Z,87.85
2023-01-22T10:22:10.266Z,87.96
2023-01-22T10:23:10.283Z,87.65
2023-01-22T10:24:10.484Z,87.75
2023-01-22T10:25:10.428Z,87.75
2023-01-22T10:26:10.374Z,88.17
2023-01-22T10:27:10.396Z,88.06
2023-01-22T10:28:10.348Z,87.96
2023-01-22T10:29:10.375Z,87.85
2023-01-22T10:30:10.478Z,88.06
2023-01-22T10:31:10.420Z,87.96
2023-01-22T10:32:10.359Z,87.85
2023-01-22T10:33:10.377Z,87.96
2023-01-22T10:34:10.331Z,87.75
2023-01-22T10:35:10.442Z,87.75
2023-01-22T10:36:10.306Z,87.43
2023-01-22T10:37:10.064Z,87.23
2023-01-22T10:38:10.111Z,87.23
2023-01-22T10:39:10.294Z,87.33
2023-01-22T10:40:10.086Z,87.54
2023-01-22T10:41:10.096Z,87.23
2023-01-22T10:42:10.068Z,87.23
2023-01-22T10:43:10.224Z,87.65
2023-01-22T10:44:10.130Z,87.33
2023-01-22T10:45:10.080Z,87.65
2023-01-22T10:46:10.380Z,87.85
2023-01-22T10:47:10.143Z,87.43
2023-01-22T10:48:10.235Z,87.33
2023-01-22T10:49:10.018Z,87.12
2023-01-22T10:50:10.130Z,86.71
2023-01-22T10:51:10.183Z,86.91
2023-01-22T10:52:10.097Z,87.23
2023-01-22T10:53:10.117Z,87.33
2023-01-22T10:54:10.223Z,87.65
2023-01-22T10:55:10.093Z,87.43
2023-01-22T10:56:12.399Z,86.91
2023-01-22T10:57:10.152Z,87.12
2023-01-22T10:58:10.110Z,87.27
2023-01-22T10:59:10.148Z,87.68
2023-01-22T11:00:10.103Z,87.58
2023-01-22T11:01:10.084Z,87.54
2023-01-22T11:02:10.109Z,87.33
2023-01-22T11:03:09.905Z,87.23
2023-01-22T11:04:09.894Z,86.91
2023-01-22T11:05:09.861Z,86.91
2023-01-22T11:06:09.835Z,87.12
2023-01-22T11:07:09.841Z,87.33
2023-01-22T11:08:09.790Z,87.43
2023-01-22T11:09:09.761Z,87.12
2023-01-22T11:10:09.812Z,86.91
2023-01-22T11:11:09.794Z,86.81
2023-01-22T11:12:09.775Z,86.91
2023-01-22T11:13:09.755Z,86.91
2023-01-22T11:14:09.922Z,86.60
2023-01-22T11:15:09.743Z,86.60
2023-01-22T11:16:09.788Z,86.40
2023-01-22T11:17:09.789Z,86.40
2023-01-22T11:18:09.721Z,86.40
2023-01-22T11:19:09.725Z,86.29
2023-01-22T11:20:09.730Z,86.29
2023-01-22T11:21:09.734Z,85.88
2023-01-22T11:22:09.663Z,85.63
2023-01-22T11:23:09.633Z,85.94
2023-01-22T11:24:09.668Z,85.83
2023-01-22T11:25:09.621Z,85.83
2023-01-22T11:26:09.664Z,86.04
2023-01-22T11:27:09.594Z,86.19
2023-01-22T11:28:09.646Z,86.19
2023-01-22T11:29:09.802Z,86.96
2023-01-22T11:30:09.882Z,86.96
2023-01-22T11:31:09.677Z,86.65
2023-01-22T11:32:09.587Z,87.16
2023-01-22T11:33:09.549Z,87.27
2023-01-22T11:34:09.572Z,87.48
2023-01-22T11:35:09.673Z,87.43
2023-01-22T11:36:09.937Z,87.23
2023-01-22T11:37:09.574Z,87.23
2023-01-22T11:38:09.524Z,87.23
2023-01-22T11:39:09.502Z,87.02
2023-01-22T11:40:09.705Z,86.65
2023-01-22T11:41:09.445Z,87.16
2023-01-22T11:42:09.461Z,87.89
2023-01-22T11:43:09.443Z,88.31
2023-01-22T11:44:09.453Z,87.99
2023-01-22T11:45:09.500Z,87.89
2023-01-22T11:46:09.653Z,87.89
2023-01-22T11:47:09.455Z,87.48
2023-01-22T11:48:09.452Z,87.58
2023-01-22T11:49:09.400Z,87.79
2023-01-22T11:50:09.394Z,88.20
2023-01-22T11:51:09.515Z,88.20
2023-01-22T11:52:09.576Z,88.31
2023-01-22T11:53:09.580Z,88.10
2023-01-22T11:54:10.747Z,88.10
2023-01-22T11:55:09.505Z,87.89
2023-01-22T11:56:09.595Z,87.79
2023-01-22T11:57:09.602Z,87.89
2023-01-22T11:58:09.523Z,87.58
2023-01-22T11:59:09.520Z,87.62
2023-01-22T12:00:09.506Z,88.04
2023-01-22T12:01:09.613Z,88.87
2023-01-22T12:02:09.536Z,89.22
2023-01-22T12:03:09.400Z,89.43
2023-01-22T12:04:09.393Z,89.43
2023-01-22T12:05:09.433Z,89.75
2023-01-22T12:06:09.413Z,90.16
2023-01-22T12:07:09.417Z,90.58
2023-01-22T12:08:09.399Z,90.83
2023-01-22T12:09:09.405Z,91.14
2023-01-22T12:10:09.406Z,91.46
2023-01-22T12:11:09.383Z,91.41
2023-01-22T12:12:09.380Z,91.20
2023-01-22T12:13:09.209Z,90.89
2023-01-22T12:14:09.177Z,90.06
2023-01-22T12:15:09.305Z,90.26
2023-01-22T12:16:09.361Z,90.26
2023-01-22T12:17:09.317Z,90.16
2023-01-22T12:18:09.248Z,90.06
2023-01-22T12:19:09.303Z,90.26
2023-01-22T12:20:09.258Z,90.89
2023-01-22T12:21:09.210Z,90.89
2023-01-22T12:22:09.153Z,90.79
2023-01-22T12:23:09.248Z,90.26
2023-01-22T12:24:09.110Z,90.22
2023-01-22T12:25:09.261Z,89.91
2023-01-22T12:26:09.179Z,89.91
2023-01-22T12:27:10.217Z,89.39
2023-01-22T12:28:09.251Z,89.70
2023-01-22T12:29:09.165Z,89.70
2023-01-22T12:30:09.166Z,89.60
2023-01-22T12:31:09.324Z,89.18
2023-01-22T12:32:09.138Z,88.93
2023-01-22T12:33:09.237Z,88.93
2023-01-22T12:34:09.169Z,88.73
2023-01-22T12:35:09.195Z,88.93
2023-01-22T12:36:09.117Z,89.14
2023-01-22T12:37:09.017Z,88.73
2023-01-22T12:38:11.935Z,88.73
2023-01-22T12:39:09.124Z,88.83
2023-01-22T12:40:09.189Z,88.83
2023-01-22T12:41:09.174Z,88.93
2023-01-22T12:42:09.089Z,88.73
2023-01-22T12:43:09.061Z,89.08
2023-01-22T12:44:10.556Z,89.29
2023-01-22T12:45:09.027Z,89.04
2023-01-22T12:46:09.054Z,88.62
2023-01-22T12:47:09.113Z,88.73
2023-01-22T12:48:09.041Z,88.83
2023-01-22T12:49:08.974Z,88.93
2023-01-22T12:50:09.073Z,89.04
2023-01-22T12:51:09.056Z,88.83
2023-01-22T12:52:08.988Z,88.52